PEM weather

Padre Aldamiz International Airport
Puerto Maldonado, Madre de Dios Region, PerĂº

Public forecast

Using degrees Celsius for public forecast. Weather courtesy of forecast.io.

METAR (pilot weather report)

Retrieved 2019/04/22 13:00 UTC (36 minutes ago):

SPTU 221300Z 33003KT 290V010 CAVOK 28/25 Q1009 RMK BIRD HAZARD RWY 01/19 PP000

TAF (pilot weather forecast)

Forecast is more than 12 hours old.

Retrieved 2019/04/17 12:33 UTC (5 days ago):

TAF COR SPTU 171100Z 1712/1812 VRB02KT 2000 RA BR SCT010 BKN100 TX31/1719Z TN22/1811Z TEMPO 1712/1714 5000 TSRA SCT010 FEW020CB BECMG 1714/1716 9000 NSW